Alpnach Air Base LSMA

Flugplatz Daten

Name: Alpnach Air Base

Ident: LSMA

Lat: 46,94390106

Long: 8,284170151

Platzhöhe: 1460 ft

IataCode:

City: Alpnach

Metar

2021/08/02 09:50
LSMA 020950Z 06007KT 9999 BKN100 17/10 Q1017 RMK BLU

Taf

2021/08/01 17:00
TAF LSMA 011625Z 0117/0223 VRB02KT 9999 SCT017 BKN045
TEMPO 0117/0122 SHRA SCT040TCU PROB30
TEMPO 0117/0120 22015G25KT TSRA SCT040CB PROB40 0201/0206 3000 MIFG PROB30 0202/0205 0800 PRFG VV003
TEMPO 0209/0223 SHRA PROB30
TEMPO 0212/0220 SHRA SCT050TCU
Gewünschte Webcam nicht vorhanden? Dann fügen Sie eine hinzu. Sie wird dann so schnell wie möglich freigeschaltet
Url: Title: